SondeTracker

Meteorological Radiosondes Database

Operations

Sounding was ended - last measurement: 2021-09-15 14:01:30z

MAP
About Radiosonde

Number: S3920364

Launch Site: Galeão (BR)

Type: Type=RS41

AUX: NO

Frequency: 405.300 MHz

Max Speed: 91 km/h at 16801 m

Average Speed: 26.11 km/h

Max Altitude: 23697 m

Average Ascent Speed: 6.82 m/s

Average Descent Speed: 4.44 m/s

Status: UNKNOWN

Status Changes
Launch Site Type AUX Frequency Status Finder Landing Point Description Changes made by
APRS Statistics

Received Frames: 192

First Frame [UTC]: 2021-09-15 11:46:30z

Last Frame [UTC]: 2021-09-15 14:01:30z

Receivers: PU1SDR-11, PY1TCM-1

Flight Time: 02:15:00 h

Distance From First Measurement: 43.48 km

Nearest City: Itaboraí (BR) [4.54 km]

Nearest Hunter: PU1JDI-11 [45.83 km]

Ground Altitude: 38 m

Distance from QTH: 0.00 km

APRS Data
Receiver Number Date/Time [UTC] φ λ Course [°] Speed [km/h] Altitude [m] Description
PU1SDR-11S39203642021-09-15 14:01:30-22.7473-42.81416113390Type=RS41-SGP f=405.300 MHz Clb=-3.6m/s t=27.6C p=970.9hPa h=56.7% batt=2.8V https://tracker.sondehub.org/S3920364 - https://rad
PU1SDR-11S39203642021-09-15 14:01:00-22.7475-42.8144629427Type=RS41-SGP f=405.300 MHz Clb=-4.0m/s t=27.3C p=966.9hPa h=56.5% batt=2.8V https://tracker.sondehub.org/S3920364 - https://rad
PU1SDR-11S39203642021-09-15 14:00:30-22.7481-42.81524413545Type=RS41-SGP f=405.300 MHz Clb=-3.8m/s t=26.8C p=954.0hPa h=49.8% batt=2.8V https://tracker.sondehub.org/S3920364 - https://rad
PU1SDR-11S39203642021-09-15 14:00:00-22.7489-42.81592915657Type=RS41-SGP f=405.300 MHz Clb=-4.0m/s t=26.0C p=942.2hPa h=47.7% batt=2.8V https://tracker.sondehub.org/S3920364 - https://rad
PU1SDR-11S39203642021-09-15 13:59:30-22.7505-42.81651617803Type=RS41-SGP f=405.300 MHz Clb=-3.5m/s t=25.0C p=926.5hPa h=50.0% batt=2.8V https://tracker.sondehub.org/S3920364 - https://rad
PU1SDR-11S39203642021-09-15 13:59:00-22.7514-42.8167515878Type=RS41-SGP f=405.300 MHz Clb=-3.3m/s t=24.4C p=918.8hPa h=53.0% batt=2.8V https://tracker.sondehub.org/S3920364 - https://rad
PU1SDR-11S39203642021-09-15 13:58:30-22.7526-42.8168315974Type=RS41-SGP f=405.300 MHz Clb=-3.0m/s t=23.6C p=908.8hPa h=54.6% batt=2.8V https://tracker.sondehub.org/S3920364 - https://rad
PU1SDR-11S39203642021-09-15 13:58:00-22.7538-42.81693131068Type=RS41-SGP f=405.300 MHz Clb=-3.3m/s t=23.4C p=899.0hPa h=47.2% batt=2.8V https://tracker.sondehub.org/S3920364 - https://rad
PU1SDR-11S39203642021-09-15 13:57:30-22.7549-42.81711151159Type=RS41-SGP f=405.300 MHz Clb=-3.1m/s t=23.4C p=889.9hPa h=45.5% batt=2.8V https://tracker.sondehub.org/S3920364 - https://rad
PU1SDR-11S39203642021-09-15 13:57:00-22.7561-42.81739171250Type=RS41-SGP f=405.300 MHz Clb=-2.9m/s t=22.6C p=880.6hPa h=46.3% batt=2.8V https://tracker.sondehub.org/S3920364 - https://rad
PU1SDR-11S39203642021-09-15 13:56:30-22.7573-42.817611131341Type=RS41-SGP f=405.300 MHz Clb=-3.1m/s t=21.8C p=871.4hPa h=47.7% batt=2.8V https://tracker.sondehub.org/S3920364 - https://rad
PU1SDR-11S39203642021-09-15 13:56:00-22.7582-42.817635971436Type=RS41-SGP f=405.300 MHz Clb=-3.2m/s t=21.3C p=862.0hPa h=48.6% batt=2.8V https://tracker.sondehub.org/S3920364 - https://rad
PU1SDR-11S39203642021-09-15 13:55:30-22.7588-42.817534961537Type=RS41-SGP f=405.300 MHz Clb=-3.2m/s t=20.5C p=852.0hPa h=51.2% batt=2.8V https://tracker.sondehub.org/S3920364 - https://rad
PU1SDR-11S39203642021-09-15 13:55:00-22.7594-42.817435661661Type=RS41-SGP f=405.300 MHz Clb=-3.6m/s t=19.3C p=840.0hPa h=55.4% batt=2.8V https://tracker.sondehub.org/S3920364 - https://rad
PU1SDR-11S39203642021-09-15 13:54:30-22.7597-42.817334571728Type=RS41-SGP f=405.300 MHz Clb=-2.9m/s t=18.7C p=833.4hPa h=57.8% batt=2.8V https://tracker.sondehub.org/S3920364 - https://rad
PU1SDR-11S39203642021-09-15 13:54:00-22.7601-42.817233321816Type=RS41-SGP f=405.300 MHz Clb=-2.9m/s t=18.0C p=825.0hPa h=58.6% batt=2.8V https://tracker.sondehub.org/S3920364 - https://rad
PU1SDR-11S39203642021-09-15 13:53:30-22.7603-42.81727641905Type=RS41-SGP f=405.300 MHz Clb=-2.6m/s t=17.2C p=816.7hPa h=61.5% batt=2.8V https://tracker.sondehub.org/S3920364 - https://rad
PU1SDR-11S39203642021-09-15 13:53:00-22.7602-42.818101131994Type=RS41-SGP f=405.300 MHz Clb=-2.5m/s t=16.9C p=808.2hPa h=59.8% batt=2.8V https://tracker.sondehub.org/S3920364 - https://rad
PU1SDR-11S39203642021-09-15 13:52:30-22.7599-42.8197105242082Type=RS41-SGP f=405.300 MHz Clb=-2.8m/s t=17.2C p=799.6hPa h=51.1% batt=2.8V https://tracker.sondehub.org/S3920364 - https://rad
PU1SDR-11S39203642021-09-15 13:52:00-22.7593-42.822105302174Type=RS41-SGP f=405.300 MHz Clb=-3.1m/s t=17.3C p=791.2hPa h=44.0% batt=2.8V https://tracker.sondehub.org/S3920364 - https://rad
PU1SDR-11S39203642021-09-15 13:51:30-22.7587-42.8244105302265Type=RS41-SGP f=405.300 MHz Clb=-2.9m/s t=16.9C p=782.8hPa h=43.4% batt=2.8V https://tracker.sondehub.org/S3920364 - https://rad
PU1SDR-11S39203642021-09-15 13:51:00-22.7581-42.8267103282355Type=RS41-SGP f=405.300 MHz Clb=-3.1m/s t=16.4C p=774.5hPa h=44.3% batt=2.8V https://tracker.sondehub.org/S3920364 - https://rad
PU1SDR-11S39203642021-09-15 13:50:30-22.7575-42.829107302444Type=RS41-SGP f=405.300 MHz Clb=-2.9m/s t=15.9C p=766.6hPa h=42.5% batt=2.8V https://tracker.sondehub.org/S3920364 - https://rad
PU1SDR-11S39203642021-09-15 13:50:00-22.7567-42.8315107312533Type=RS41-SGP f=405.300 MHz Clb=-3.1m/s t=15.2C p=758.5hPa h=44.1% batt=2.8V https://tracker.sondehub.org/S3920364 - https://rad
PU1SDR-11S39203642021-09-15 13:49:30-22.756-42.834105332623Type=RS41-SGP f=405.300 MHz Clb=-3.0m/s t=14.5C p=750.7hPa h=43.9% batt=2.8V https://tracker.sondehub.org/S3920364 - https://rad
PU1SDR-11S39203642021-09-15 13:49:00-22.7553-42.8365109302712Type=RS41-SGP f=405.300 MHz Clb=-2.8m/s t=13.6C p=742.8hPa h=46.2% batt=2.8V https://tracker.sondehub.org/S3920364 - https://rad
PU1SDR-11S39203642021-09-15 13:48:30-22.7545-42.8387115282798Type=RS41-SGP f=405.300 MHz Clb=-2.7m/s t=12.9C p=735.2hPa h=49.0% batt=2.8V https://tracker.sondehub.org/S3920364 - https://rad
PU1SDR-11S39203642021-09-15 13:48:00-22.7537-42.8408115262887Type=RS41-SGP f=405.300 MHz Clb=-2.9m/s t=12.0C p=727.5hPa h=52.2% batt=2.8V https://tracker.sondehub.org/S3920364 - https://rad
PU1SDR-11S39203642021-09-15 13:47:30-22.753-42.8427114242973Type=RS41-SGP f=405.300 MHz Clb=-2.9m/s t=11.2C p=720.0hPa h=53.5% batt=2.8V https://tracker.sondehub.org/S3920364 - https://rad
PU1SDR-11S39203642021-09-15 13:47:00-22.7521-42.8443123203057Type=RS41-SGP f=405.300 MHz Clb=-2.5m/s t=10.4C p=712.9hPa h=55.4% batt=2.8V https://tracker.sondehub.org/S3920364 - https://rad
PU1SDR-11S39203642021-09-15 13:46:30-22.7512-42.8456129193136Type=RS41-SGP f=405.300 MHz Clb=-2.8m/s t=9.8C p=706.0hPa h=57.1% batt=2.7V https://tracker.sondehub.org/S3920364 - https://radi
PU1SDR-11S39203642021-09-15 13:46:00-22.7503-42.8466139173215Type=RS41-SGP f=405.300 MHz Clb=-2.5m/s t=9.3C p=699.5hPa h=55.5% batt=2.7V https://tracker.sondehub.org/S3920364 - https://radi
PU1SDR-11S39203642021-09-15 13:45:30-22.7494-42.8474149153296Type=RS41-SGP f=405.300 MHz Clb=-2.4m/s t=8.7C p=692.7hPa h=56.2% batt=2.7V https://tracker.sondehub.org/S3920364 - https://radi
PU1SDR-11S39203642021-09-15 13:45:00-22.7484-42.8481151173373Type=RS41-SGP f=405.300 MHz Clb=-2.4m/s t=8.0C p=686.3hPa h=57.6% batt=2.7V https://tracker.sondehub.org/S3920364 - https://radi
PU1SDR-11S39203642021-09-15 13:44:30-22.7472-42.8488151173453Type=RS41-SGP f=405.300 MHz Clb=-2.7m/s t=7.3C p=679.6hPa h=59.7% batt=2.7V https://tracker.sondehub.org/S3920364 - https://radi
PU1SDR-11S39203642021-09-15 13:44:00-22.7461-42.8494150153537Type=RS41-SGP f=405.300 MHz Clb=-2.8m/s t=6.5C p=672.8hPa h=61.5% batt=2.7V https://tracker.sondehub.org/S3920364 - https://radi
PU1SDR-11S39203642021-09-15 13:43:30-22.745-42.8501145153623Type=RS41-SGP f=405.300 MHz Clb=-2.9m/s t=5.7C p=665.8hPa h=62.5% batt=2.7V https://tracker.sondehub.org/S3920364 - https://radi
PU1SDR-11S39203642021-09-15 13:43:00-22.7441-42.8508143113708Type=RS41-SGP f=405.300 MHz Clb=-2.8m/s t=5.0C p=658.9hPa h=64.5% batt=2.7V https://tracker.sondehub.org/S3920364 - https://radi
PU1SDR-11S39203642021-09-15 13:42:30-22.7434-42.8515134113796Type=RS41-SGP f=405.300 MHz Clb=-2.9m/s t=4.1C p=652.0hPa h=72.8% batt=2.7V https://tracker.sondehub.org/S3920364 - https://radi
PU1SDR-11S39203642021-09-15 13:42:00-22.7427-42.8523136153883Type=RS41-SGP f=405.300 MHz Clb=-2.8m/s t=3.3C p=645.1hPa h=75.9% batt=2.7V https://tracker.sondehub.org/S3920364 - https://radi
PU1SDR-11S39203642021-09-15 13:41:30-22.7419-42.8533119173978Type=RS41-SGP f=405.300 MHz Clb=-3.6m/s t=2.4C p=637.6hPa h=78.8% batt=2.7V https://tracker.sondehub.org/S3920364 - https://radi
PU1SDR-11S39203642021-09-15 13:41:00-22.7415-42.8544107134071Type=RS41-SGP f=405.300 MHz Clb=-2.9m/s t=1.7C p=630.3hPa h=80.1% batt=2.7V https://tracker.sondehub.org/S3920364 - https://radi
PU1SDR-11S39203642021-09-15 13:40:30-22.7412-42.8555102134166Type=RS41-SGP f=405.300 MHz Clb=-2.8m/s t=0.8C p=623.0hPa h=89.2% batt=2.7V https://tracker.sondehub.org/S3920364 - https://radi
PU1SDR-11S39203642021-09-15 13:40:00-22.7409-42.8566106134260Type=RS41-SGP f=405.300 MHz Clb=-2.8m/s t=-0.1C p=615.8hPa h=94.0% batt=2.7V https://tracker.sondehub.org/S3920364 - https://rad
PU1SDR-11S39203642021-09-15 13:39:30-22.7407-42.8579100154359Type=RS41-SGP f=405.300 MHz Clb=-3.3m/s t=-1.0C p=608.2hPa h=94.9% batt=2.6V https://tracker.sondehub.org/S3920364 - https://rad
PU1SDR-11S39203642021-09-15 13:39:00-22.7405-42.859298174460Type=RS41-SGP f=405.300 MHz Clb=-3.4m/s t=-1.8C p=600.5hPa h=94.1% batt=2.7V https://tracker.sondehub.org/S3920364 - https://rad
PU1SDR-11S39203642021-09-15 13:38:30-22.7403-42.860795194560Type=RS41-SGP f=405.300 MHz Clb=-3.1m/s t=-2.6C p=593.1hPa h=96.5% batt=2.7V https://tracker.sondehub.org/S3920364 - https://rad
PU1SDR-11S39203642021-09-15 13:38:00-22.7401-42.8624102224663Type=RS41-SGP f=405.300 MHz Clb=-3.3m/s t=-3.2C p=585.5hPa h=89.2% batt=2.7V https://tracker.sondehub.org/S3920364 - https://rad
PU1SDR-11S39203642021-09-15 13:37:30-22.7398-42.864491244765Type=RS41-SGP f=405.300 MHz Clb=-3.6m/s t=-3.4C p=578.0hPa h=63.9% batt=2.7V https://tracker.sondehub.org/S3920364 - https://rad
PU1SDR-11S39203642021-09-15 13:37:00-22.7401-42.866374224867Type=RS41-SGP f=405.300 MHz Clb=-3.0m/s t=-3.2C p=570.6hPa h=58.5% batt=2.7V https://tracker.sondehub.org/S3920364 - https://rad
PU1SDR-11S39203642021-09-15 13:36:30-22.7405-42.868173244968Type=RS41-SGP f=405.300 MHz Clb=-3.4m/s t=-3.1C p=563.4hPa h=54.9% batt=2.7V https://tracker.sondehub.org/S3920364 - https://rad
PU1SDR-11S39203642021-09-15 13:36:00-22.7412-42.870170265071Type=RS41-SGP f=405.300 MHz Clb=-3.4m/s t=-2.3C p=556.1hPa h=77.6% batt=2.7V https://tracker.sondehub.org/S3920364 - https://rad
PU1SDR-11S39203642021-09-15 13:35:00-22.7421-42.87481205275Type=RS41-SGP f=405.300 MHz Clb=-3.3m/s t=-3.1C p=542.0hPa h=78.2% batt=2.7V https://tracker.sondehub.org/S3920364 - https://rad
PU1SDR-11S39203642021-09-15 13:34:30-22.7422-42.875791225379Type=RS41-SGP f=405.300 MHz Clb=-3.3m/s t=-3.4C p=535.0hPa h=72.6% batt=2.7V https://tracker.sondehub.org/S3920364 - https://rad
PU1SDR-11S39203642021-09-15 13:34:00-22.7418-42.8775106225484Type=RS41-SGP f=405.300 MHz Clb=-3.3m/s t=-3.4C p=527.9hPa h=63.9% batt=2.7V https://tracker.sondehub.org/S3920364 - https://rad
PU1SDR-11S39203642021-09-15 13:33:30-22.7415-42.879298195586Type=RS41-SGP f=405.300 MHz Clb=-3.3m/s t=-3.7C p=521.2hPa h=62.1% batt=2.7V https://tracker.sondehub.org/S3920364 - https://rad
PU1SDR-11S39203642021-09-15 13:33:00-22.7414-42.880590135686Type=RS41-SGP f=405.300 MHz Clb=-3.2m/s t=-4.6C p=514.5hPa h=66.1% batt=2.6V https://tracker.sondehub.org/S3920364 - https://rad
PU1SDR-11S39203642021-09-15 13:32:30-22.7414-42.881890175787Type=RS41-SGP f=405.300 MHz Clb=-3.1m/s t=-5.4C p=508.1hPa h=72.6% batt=2.7V https://tracker.sondehub.org/S3920364 - https://rad
PU1SDR-11S39203642021-09-15 13:32:00-22.7413-42.883394195885Type=RS41-SGP f=405.300 MHz Clb=-3.2m/s t=-6.0C p=501.7hPa h=70.5% batt=2.7V https://tracker.sondehub.org/S3920364 - https://rad
PU1SDR-11S39203642021-09-15 13:31:30-22.7411-42.88598225985Type=RS41-SGP f=405.300 MHz Clb=-3.3m/s t=-6.9C p=495.4hPa h=74.0% batt=2.6V https://tracker.sondehub.org/S3920364 - https://rad
PU1SDR-11S39203642021-09-15 13:31:00-22.7409-42.887192286085Type=RS41-SGP f=405.300 MHz Clb=-3.4m/s t=-7.4C p=489.1hPa h=76.4% batt=2.7V https://tracker.sondehub.org/S3920364 - https://rad
PU1SDR-11S39203642021-09-15 13:30:30-22.7406-42.8896100316187Type=RS41-SGP f=405.300 MHz Clb=-3.4m/s t=-7.5C p=482.8hPa h=70.9% batt=2.7V https://tracker.sondehub.org/S3920364 - https://rad
PU1SDR-11S39203642021-09-15 13:30:00-22.74-42.892109306291Type=RS41-SGP f=405.300 MHz Clb=-3.4m/s t=-7.7C p=476.5hPa h=65.9% batt=2.7V https://tracker.sondehub.org/S3920364 - https://rad
PU1SDR-11S39203642021-09-15 13:29:30-22.7392-42.8942114306400Type=RS41-SGP f=405.300 MHz Clb=-3.5m/s t=-8.0C p=469.8hPa h=55.9% batt=2.7V https://tracker.sondehub.org/S3920364 - https://rad
PU1SDR-11S39203642021-09-15 13:29:00-22.7382-42.8964110286511Type=RS41-SGP f=405.300 MHz Clb=-3.4m/s t=-8.9C p=463.2hPa h=55.6% batt=2.7V https://tracker.sondehub.org/S3920364 - https://rad
PU1SDR-11S39203642021-09-15 13:28:30-22.7377-42.898694286618Type=RS41-SGP f=405.300 MHz Clb=-3.3m/s t=-9.7C p=456.8hPa h=66.8% batt=2.7V https://tracker.sondehub.org/S3920364 - https://rad
PU1SDR-11S39203642021-09-15 13:28:00-22.7378-42.900883246722Type=RS41-SGP f=405.300 MHz Clb=-3.2m/s t=-10.1C p=450.7hPa h=63.3% batt=2.6V https://tracker.sondehub.org/S3920364 - https://ra
PU1SDR-11S39203642021-09-15 13:27:30-22.738-42.902881226828Type=RS41-SGP f=405.300 MHz Clb=-3.6m/s t=-10.7C p=444.5hPa h=54.8% batt=2.6V https://tracker.sondehub.org/S3920364 - https://ra
PU1SDR-11S39203642021-09-15 13:27:00-22.7382-42.904678226933Type=RS41-SGP f=405.300 MHz Clb=-3.5m/s t=-11.4C p=438.5hPa h=57.0% batt=2.6V https://tracker.sondehub.org/S3920364 - https://ra
PU1SDR-11S39203642021-09-15 13:26:30-22.7386-42.906381207037Type=RS41-SGP f=405.300 MHz Clb=-3.1m/s t=-12.2C p=432.7hPa h=62.8% batt=2.6V https://tracker.sondehub.org/S3920364 - https://ra
PU1SDR-11S39203642021-09-15 13:26:00-22.739-42.907769157139Type=RS41-SGP f=405.300 MHz Clb=-3.3m/s t=-12.4C p=426.9hPa h=55.3% batt=2.6V https://tracker.sondehub.org/S3920364 - https://ra
PU1SDR-11S39203642021-09-15 13:25:00-22.7409-42.910142247351Type=RS41-SGP f=405.300 MHz Clb=-3.2m/s t=-13.6C p=415.3hPa h=54.5% batt=2.6V https://tracker.sondehub.org/S3920364 - https://ra
PU1SDR-11S39203642021-09-15 13:24:00-22.744-42.912939307561Type=RS41-SGP f=405.300 MHz Clb=-3.2m/s t=-15.4C p=404.0hPa h=54.5% batt=2.6V https://tracker.sondehub.org/S3920364 - https://ra
PU1SDR-11S39203642021-09-15 13:23:30-22.7461-42.914737337675Type=RS41-SGP f=405.300 MHz Clb=-3.6m/s t=-16.3C p=398.0hPa h=54.0% batt=2.5V https://tracker.sondehub.org/S3920364 - https://ra
PU1SDR-11S39203642021-09-15 13:23:00-22.748-42.916338357767Type=RS41-SGP f=405.300 MHz Clb=-3.2m/s t=-17.1C p=393.0hPa h=51.1% batt=2.5V https://tracker.sondehub.org/S3920364 - https://ra
PU1SDR-11S39203642021-09-15 13:22:00-22.7519-42.919939337970Type=RS41-SGP f=405.300 MHz Clb=-3.3m/s t=-18.2C p=382.6hPa h=28.0% batt=2.6V https://tracker.sondehub.org/S3920364 - https://ra
PU1SDR-11S39203642021-09-15 13:21:30-22.7541-42.921839418073Type=RS41-SGP f=405.300 MHz Clb=-3.8m/s t=-18.7C p=377.3hPa h=15.2% batt=2.5V https://tracker.sondehub.org/S3920364 - https://ra
PU1SDR-11S39203642021-09-15 13:21:00-22.7565-42.923938398180Type=RS41-SGP f=405.300 MHz Clb=-3.1m/s t=-19.6C p=372.0hPa h=15.1% batt=2.6V https://tracker.sondehub.org/S3920364 - https://ra
PU1SDR-11S39203642021-09-15 13:20:00-22.7606-42.927130268399Type=RS41-SGP f=405.300 MHz Clb=-3.7m/s t=-21.5C p=361.1hPa h=17.7% batt=2.6V https://tracker.sondehub.org/S3920364 - https://ra
PU1SDR-11S39203642021-09-15 13:19:30-22.7622-42.928236248511Type=RS41-SGP f=405.300 MHz Clb=-3.8m/s t=-22.3C p=355.7hPa h=26.5% batt=2.6V https://tracker.sondehub.org/S3920364 - https://ra
PU1SDR-11S39203642021-09-15 13:18:30-22.7647-42.930946198736Type=RS41-SGP f=405.300 MHz Clb=-3.5m/s t=-24.2C p=345.0hPa h=46.6% batt=2.6V https://tracker.sondehub.org/S3920364 - https://ra
PU1SDR-11S39203642021-09-15 13:18:00-22.7656-42.93255178850Type=RS41-SGP f=405.300 MHz Clb=-3.9m/s t=-25.1C p=339.6hPa h=57.5% batt=2.5V https://tracker.sondehub.org/S3920364 - https://ra
PU1SDR-11S39203642021-09-15 13:17:30-22.7661-42.933268158961Type=RS41-SGP f=405.300 MHz Clb=-3.8m/s t=-26.0C p=334.5hPa h=60.0% batt=2.6V https://tracker.sondehub.org/S3920364 - https://ra
PU1SDR-11S39203642021-09-15 13:17:00-22.7666-42.934362139072Type=RS41-SGP f=405.300 MHz Clb=-3.6m/s t=-26.8C p=329.4hPa h=57.6% batt=2.6V https://tracker.sondehub.org/S3920364 - https://ra
PU1SDR-11S39203642021-09-15 13:16:00-22.7681-42.936456199297Type=RS41-SGP f=405.300 MHz Clb=-3.8m/s t=-28.4C p=319.3hPa h=34.4% batt=2.5V https://tracker.sondehub.org/S3920364 - https://ra
PU1SDR-11S39203642021-09-15 13:15:00-22.7696-42.939363199526Type=RS41-SGP f=405.300 MHz Clb=-4.3m/s t=-30.4C p=309.2hPa h=41.9% batt=2.5V https://tracker.sondehub.org/S3920364 - https://ra
PU1SDR-11S39203642021-09-15 13:14:30-22.7703-42.940759209644Type=RS41-SGP f=405.300 MHz Clb=-4.3m/s t=-31.4C p=304.1hPa h=41.1% batt=2.5V https://tracker.sondehub.org/S3920364 - https://ra
PU1SDR-11S39203642021-09-15 13:14:00-22.7712-42.942257229763Type=RS41-SGP f=405.300 MHz Clb=-4.2m/s t=-32.4C p=299.1hPa h=33.1% batt=2.5V https://tracker.sondehub.org/S3920364 - https://ra
PU1SDR-11S39203642021-09-15 13:13:30-22.7722-42.943956229883Type=RS41-SGP f=405.300 MHz Clb=-4.2m/s t=-33.6C p=294.0hPa h=39.0% batt=2.4V https://tracker.sondehub.org/S3920364 - https://ra
PU1SDR-11S39203642021-09-15 13:13:00-22.7732-42.9455572410003Type=RS41-SGP f=405.300 MHz Clb=-4.1m/s t=-34.6C p=289.1hPa h=40.4% batt=2.4V https://tracker.sondehub.org/S3920364 - https://ra
PU1SDR-11S39203642021-09-15 13:12:00-22.775-42.9488602010243Type=RS41-SGP f=405.300 MHz Clb=-4.1m/s t=-36.9C p=279.3hPa h=55.5% batt=2.6V https://tracker.sondehub.org/S3920364 - https://ra
PU1SDR-11S39203642021-09-15 13:11:30-22.7757-42.9502641710365Type=RS41-SGP f=405.300 MHz Clb=-4.0m/s t=-38.0C p=274.4hPa h=59.7% batt=2.6V https://tracker.sondehub.org/S3920364 - https://ra
PU1SDR-11S39203642021-09-15 13:10:00-22.7765-42.953187910739Type=RS41-SGP f=405.300 MHz Clb=-4.4m/s t=-41.4C p=259.8hPa h=53.6% batt=2.4V https://tracker.sondehub.org/S3920364 - https://ra
PU1SDR-11S39203642021-09-15 13:09:30-22.7765-42.953986710864Type=RS41-SGP f=405.300 MHz Clb=-4.3m/s t=-42.6C p=255.1hPa h=56.6% batt=2.4V https://tracker.sondehub.org/S3920364 - https://ra
PU1SDR-11S39203642021-09-15 13:09:00-22.7767-42.954766910989Type=RS41-SGP f=405.300 MHz Clb=-4.4m/s t=-43.7C p=250.4hPa h=66.2% batt=2.4V https://tracker.sondehub.org/S3920364 - https://ra
PU1SDR-11S39203642021-09-15 13:08:00-22.7772-42.9564781311245Type=RS41-SGP f=405.300 MHz Clb=-4.5m/s t=-45.8C p=241.1hPa h=67.3% batt=2.5V https://tracker.sondehub.org/S3920364 - https://ra
PU1SDR-11S39203642021-09-15 13:07:30-22.7773-42.9578921711373Type=RS41-SGP f=405.300 MHz Clb=-4.5m/s t=-46.9C p=236.5hPa h=59.4% batt=2.4V https://tracker.sondehub.org/S3920364 - https://ra
PU1SDR-11S39203642021-09-15 13:06:30-22.7765-42.96061211711629Type=RS41-SGP f=405.300 MHz Clb=-3.9m/s t=-49.2C p=227.5hPa h=46.1% batt=2.5V https://tracker.sondehub.org/S3920364 - https://ra
PU1SDR-11S39203642021-09-15 13:06:00-22.7756-42.96181332011755Type=RS41-SGP f=405.300 MHz Clb=-4.3m/s t=-50.2C p=223.2hPa h=44.2% batt=2.5V https://tracker.sondehub.org/S3920364 - https://ra
PU1SDR-11S39203642021-09-15 13:05:30-22.7744-42.9631332011882Type=RS41-SGP f=405.300 MHz Clb=-4.2m/s t=-51.2C p=218.9hPa h=44.6% batt=2.4V https://tracker.sondehub.org/S3920364 - https://ra
PU1SDR-11S39203642021-09-15 13:04:00-22.7712-42.96771182612271Type=RS41-SGP f=405.300 MHz Clb=-4.6m/s t=-54.2C p=206.2hPa h=31.3% batt=2.4V https://tracker.sondehub.org/S3920364 - https://ra
PU1SDR-11S39203642021-09-15 13:03:30-22.7702-42.96961092612402Type=RS41-SGP f=405.300 MHz Clb=-4.0m/s t=-55.4C p=202.0hPa h=25.8% batt=2.4V https://tracker.sondehub.org/S3920364 - https://ra
PU1SDR-11S39203642021-09-15 13:02:30-22.7697-42.9736902612666Type=RS41-SGP f=405.300 MHz Clb=-4.4m/s t=-57.5C p=193.8hPa h=36.0% batt=2.6V https://tracker.sondehub.org/S3920364 - https://ra
PU1SDR-11S39203642021-09-15 13:02:00-22.7697-42.9759903012807Type=RS41-SGP f=405.300 MHz Clb=-4.9m/s t=-58.7C p=189.5hPa h=38.6% batt=2.4V https://tracker.sondehub.org/S3920364 - https://ra
PU1SDR-11S39203642021-09-15 13:01:30-22.7696-42.9784933012950Type=RS41-SGP f=405.300 MHz Clb=-4.4m/s t=-60.0C p=185.3hPa h=43.0% batt=2.4V https://tracker.sondehub.org/S3920364 - https://ra
PU1SDR-11S39203642021-09-15 13:00:00-22.7692-42.986943313376Type=RS41-SGP f=405.300 MHz Clb=-4.3m/s t=-63.6C p=173.0hPa h=40.5% batt=2.4V https://tracker.sondehub.org/S3920364 - https://ra
PU1SDR-11S39203642021-09-15 12:59:00-22.7697-42.9916733713652Type=RS41-SGP f=405.300 MHz Clb=-4.8m/s t=-65.2C p=165.3hPa h=36.1% batt=2.4V https://tracker.sondehub.org/S3920364 - https://ra
PU1SDR-11S39203642021-09-15 12:58:00-22.7734-42.9992596513926Type=RS41-SGP f=405.300 MHz Clb=-3.9m/s t=-66.6C p=158.1hPa h=40.1% batt=2.6V https://tracker.sondehub.org/S3920364 - https://ra
PU1SDR-11S39203642021-09-15 12:57:30-22.7761-43.0041597214060Type=RS41-SGP f=405.300 MHz Clb=-4.3m/s t=-67.5C p=154.6hPa h=38.8% batt=2.6V https://tracker.sondehub.org/S3920364 - https://ra
PU1SDR-11S39203642021-09-15 12:56:00-22.7853-43.0193577614492Type=RS41-SGP f=405.300 MHz Clb=-4.7m/s t=-70.7C p=143.8hPa h=31.0% batt=2.6V https://tracker.sondehub.org/S3920364 - https://ra
PU1SDR-11S39203642021-09-15 12:55:00-22.7918-43.0301568314805Type=RS41-SGP f=405.300 MHz Clb=-5.4m/s t=-72.4C p=136.5hPa h=27.5% batt=2.5V https://tracker.sondehub.org/S3920364 - https://ra
PU1SDR-11S39203642021-09-15 12:54:00-22.797-43.039754615112Type=RS41-SGP f=405.300 MHz Clb=-3.8m/s t=-71.6C p=129.4hPa h=26.4% batt=2.5V https://tracker.sondehub.org/S3920364 - https://ra
PU1SDR-11S39203642021-09-15 12:53:30-22.798-43.0418833515281Type=RS41-SGP f=405.300 MHz Clb=-4.9m/s t=-72.9C p=125.9hPa h=25.1% batt=2.5V https://tracker.sondehub.org/S3920364 - https://ra
PU1SDR-11S39203642021-09-15 12:52:00-22.7985-43.0506973015710Type=RS41-SGP f=405.300 MHz Clb=-4.3m/s t=-72.7C p=117.0hPa h=21.0% batt=2.5V https://tracker.sondehub.org/S3920364 - https://ra
PU1SDR-11S39203642021-09-15 12:50:00-22.7949-43.06351036716337Type=RS41-SGP f=405.300 MHz Clb=-5.2m/s t=-75.2C p=105.1hPa h=16.7% batt=2.5V https://tracker.sondehub.org/S3920364 - https://ra
PU1SDR-11S39203642021-09-15 12:49:30-22.7937-43.06931017816502Type=RS41-SGP f=405.300 MHz Clb=-5.0m/s t=-74.4C p=102.2hPa h=13.9% batt=2.5V https://tracker.sondehub.org/S3920364 - https://ra
PY1TCM-1S39203642021-09-15 12:48:00-22.7896-43.0904958017023Clb=-5.5m/s t=-74.3C h=9.4% p=93.5hPa v=2.5V 405.300 MHz Type=RS41-SGP ser=S3920364 Radiosonde http://sondehub.org/S3920364 http
PU1SDR-11S39203642021-09-15 12:47:30-22.7894-43.0964887217206Type=RS41-SGP f=405.300 MHz Clb=-6.1m/s t=-72.5C p=90.6hPa h=8.3% batt=2.5V https://tracker.sondehub.org/S3920364 - https://radi
PU1SDR-11S39203642021-09-15 12:47:00-22.79-43.1025807217392Type=RS41-SGP f=405.300 MHz Clb=-6.0m/s t=-71.1C p=87.8hPa h=6.3% batt=2.6V https://tracker.sondehub.org/S3920364 - https://radi
PU1SDR-11S39203642021-09-15 12:46:00-22.7925-43.1107693517764Type=RS41-SGP f=405.300 MHz Clb=-6.3m/s t=-69.0C p=82.5hPa h=4.6% batt=2.5V https://tracker.sondehub.org/S3920364 - https://radi
PU1SDR-11S39203642021-09-15 12:44:00-22.7899-43.1185881918554Type=RS41-SGP f=405.300 MHz Clb=-7.3m/s t=-65.0C p=72.4hPa h=3.2% batt=2.5V https://tracker.sondehub.org/S3920364 - https://radi
PY1TCM-1S39203642021-09-15 12:43:30-22.7909-43.11893441518765Clb=-6.6m/s t=-62.8C h=2.6% p=70.0hPa v=2.6V 405.300 MHz Type=RS41-SGP ser=S3920364 Radiosonde http://sondehub.org/S3920364 http
PY1TCM-1S39203642021-09-15 12:43:00-22.7919-43.1191351518978Clb=-7.3m/s t=-63.7C h=2.6% p=67.6hPa v=2.5V 405.300 MHz Type=RS41-SGP ser=S3920364 Radiosonde http://sondehub.org/S3920364 http
PY1TCM-1S39203642021-09-15 12:42:30-22.7927-43.119810719197Clb=-7.0m/s t=-64.6C h=2.7% p=65.2hPa v=2.6V 405.300 MHz Type=RS41-SGP ser=S3920364 Radiosonde http://sondehub.org/S3920364 http
PU1SDR-11S39203642021-09-15 12:42:00-22.7935-43.11933231119422Type=RS41-SGP f=405.300 MHz Clb=-7.3m/s t=-64.6C p=62.8hPa h=2.7% batt=2.5V https://tracker.sondehub.org/S3920364 - https://radi
PU1SDR-11S39203642021-09-15 12:41:30-22.794-43.1197619650Type=RS41-SGP f=405.300 MHz Clb=-7.4m/s t=-64.8C p=60.6hPa h=2.6% batt=2.5V https://tracker.sondehub.org/S3920364 - https://radi
PU1SDR-11S39203642021-09-15 12:40:00-22.7967-43.11722882820355Type=RS41-SGP f=405.300 MHz Clb=-7.8m/s t=-64.1C p=54.0hPa h=2.6% batt=2.7V https://tracker.sondehub.org/S3920364 - https://radi
PU1SDR-11S39203642021-09-15 12:39:00-22.7967-43.11322712620855Type=RS41-SGP f=405.300 MHz Clb=-8.7m/s t=-61.6C p=49.9hPa h=2.2% batt=2.7V https://tracker.sondehub.org/S3920364 - https://radi
PU1SDR-11S39203642021-09-15 12:38:00-22.7948-43.10882493121389Type=RS41-SGP f=405.300 MHz Clb=-9.3m/s t=-59.5C p=45.8hPa h=1.9% batt=2.5V https://tracker.sondehub.org/S3920364 - https://radi
PU1SDR-11S39203642021-09-15 12:37:30-22.7933-43.10672343121666Type=RS41-SGP f=405.300 MHz Clb=-9.2m/s t=-58.7C p=43.8hPa h=1.8% batt=2.7V https://tracker.sondehub.org/S3920364 - https://radi
PU1SDR-11S39203642021-09-15 12:36:00-22.7902-43.10132101322541Type=RS41-SGP f=405.300 MHz Clb=-9.8m/s t=-57.5C p=38.2hPa h=1.7% batt=2.7V https://tracker.sondehub.org/S3920364 - https://radi
PU1SDR-11S39203642021-09-15 12:35:00-22.79-43.09792693323154Type=RS41-SGP f=405.300 MHz Clb=-10.5m/s t=-56.4C p=34.6hPa h=1.6% batt=2.5V https://tracker.sondehub.org/S3920364 - https://rad
PU1SDR-11S39203642021-09-15 12:34:00-22.7898-43.09172793723697Type=RS41-SGP f=405.300 MHz Clb=7.8m/s t=-56.0C p=31.8hPa h=1.6% batt=2.6V https://tracker.sondehub.org/S3920364 - https://radio
PU1SDR-11S39203642021-09-15 12:33:30-22.7899-43.08882673923503Type=RS41-SGP f=405.300 MHz Clb=7.7m/s t=-56.5C p=32.8hPa h=1.6% batt=2.7V https://tracker.sondehub.org/S3920364 - https://radio
PU1SDR-11S39203642021-09-15 12:32:00-22.7896-43.08062661722911Type=RS41-SGP f=405.300 MHz Clb=4.5m/s t=-56.6C p=36.0hPa h=1.6% batt=2.7V https://tracker.sondehub.org/S3920364 - https://radio
PU1SDR-11S39203642021-09-15 12:31:30-22.7897-43.07852852222712Type=RS41-SGP f=405.300 MHz Clb=5.1m/s t=-57.0C p=37.1hPa h=1.7% batt=2.7V https://tracker.sondehub.org/S3920364 - https://radio
PU1SDR-11S39203642021-09-15 12:30:00-22.7882-43.07372353122120Type=RS41-SGP f=405.300 MHz Clb=8.1m/s t=-57.6C p=40.7hPa h=1.7% batt=2.6V https://tracker.sondehub.org/S3920364 - https://radio
PU1SDR-11S39203642021-09-15 12:29:30-22.7869-43.07232122421927Type=RS41-SGP f=405.300 MHz Clb=9.2m/s t=-58.0C p=42.0hPa h=1.7% batt=2.7V https://tracker.sondehub.org/S3920364 - https://radio
PU1SDR-11S39203642021-09-15 12:28:00-22.7825-43.06572623321350Type=RS41-SGP f=405.300 MHz Clb=6.1m/s t=-59.2C p=46.0hPa h=1.8% batt=2.6V https://tracker.sondehub.org/S3920364 - https://radio
PU1SDR-11S39203642021-09-15 12:27:30-22.7811-43.06332444821160Type=RS41-SGP f=405.300 MHz Clb=8.3m/s t=-59.8C p=47.4hPa h=1.9% batt=2.7V https://tracker.sondehub.org/S3920364 - https://radio
PU1SDR-11S39203642021-09-15 12:27:00-22.78-43.06052603020975Type=RS41-SGP f=405.300 MHz Clb=7.5m/s t=-60.2C p=48.8hPa h=2.0% batt=2.6V https://tracker.sondehub.org/S3920364 - https://radio
PU1SDR-11S39203642021-09-15 12:26:30-22.7799-43.0588284420791Type=RS41-SGP f=405.300 MHz Clb=5.8m/s t=-61.7C p=50.3hPa h=2.3% batt=2.6V https://tracker.sondehub.org/S3920364 - https://radio
PU1SDR-11S39203642021-09-15 12:26:00-22.7797-43.05742773020605Type=RS41-SGP f=405.300 MHz Clb=6.2m/s t=-61.4C p=51.8hPa h=2.1% batt=2.7V https://tracker.sondehub.org/S3920364 - https://radio
PU1SDR-11S39203642021-09-15 12:25:30-22.7797-43.05482911520419Type=RS41-SGP f=405.300 MHz Clb=5.8m/s t=-63.6C p=53.4hPa h=2.5% batt=2.7V https://tracker.sondehub.org/S3920364 - https://radio
PU1SDR-11S39203642021-09-15 12:24:00-22.7825-43.050921119856Type=RS41-SGP f=405.300 MHz Clb=6.4m/s t=-62.9C p=58.5hPa h=2.4% batt=2.6V https://tracker.sondehub.org/S3920364 - https://radio
PU1SDR-11S39203642021-09-15 12:23:30-22.7834-43.051346619670Type=RS41-SGP f=405.300 MHz Clb=5.8m/s t=-64.7C p=60.3hPa h=2.8% batt=2.6V https://tracker.sondehub.org/S3920364 - https://radio
PU1SDR-11S39203642021-09-15 12:23:00-22.7837-43.05113141119467Type=RS41-SGP f=405.300 MHz Clb=6.8m/s t=-64.6C p=62.3hPa h=2.8% batt=2.6V https://tracker.sondehub.org/S3920364 - https://radio
PU1SDR-11S39203642021-09-15 12:22:30-22.7845-43.0502307419275Type=RS41-SGP f=405.300 MHz Clb=3.6m/s t=-65.0C p=64.3hPa h=2.9% batt=2.6V https://tracker.sondehub.org/S3920364 - https://radio
PU1SDR-11S39203642021-09-15 12:22:00-22.785-43.0503401119086Type=RS41-SGP f=405.300 MHz Clb=5.8m/s t=-64.6C p=66.3hPa h=3.0% batt=2.7V https://tracker.sondehub.org/S3920364 - https://radio
PU1SDR-11S39203642021-09-15 12:21:30-22.7857-43.0509353718882Type=RS41-SGP f=405.300 MHz Clb=9.8m/s t=-63.0C p=68.6hPa h=3.1% batt=2.6V https://tracker.sondehub.org/S3920364 - https://radio
PU1SDR-11S39203642021-09-15 12:19:30-22.7852-43.05611632218140Type=RS41-SGP f=405.300 MHz Clb=2.8m/s t=-69.6C p=77.4hPa h=7.8% batt=2.7V https://tracker.sondehub.org/S3920364 - https://radio
PU1SDR-11S39203642021-09-15 12:19:00-22.7835-43.05681503017951Type=RS41-SGP f=405.300 MHz Clb=3.9m/s t=-68.7C p=79.9hPa h=8.6% batt=2.6V https://tracker.sondehub.org/S3920364 - https://radio
PU1SDR-11S39203642021-09-15 12:18:30-22.7832-43.0587723917730Type=RS41-SGP f=405.300 MHz Clb=7.0m/s t=-68.6C p=82.9hPa h=10.6% batt=2.6V https://tracker.sondehub.org/S3920364 - https://radi
PU1SDR-11S39203642021-09-15 12:17:30-22.7858-43.0672878317359Type=RS41-SGP f=405.300 MHz Clb=5.5m/s t=-71.7C p=88.2hPa h=16.1% batt=2.8V https://tracker.sondehub.org/S3920364 - https://radi
PU1SDR-11S39203642021-09-15 12:16:00-22.7845-43.08841069116801Type=RS41-SGP f=405.300 MHz Clb=7.1m/s t=-73.0C p=97.0hPa h=22.7% batt=2.8V https://tracker.sondehub.org/S3920364 - https://radi
PU1SDR-11S39203642021-09-15 12:15:00-22.7813-43.10221018316419Type=RS41-SGP f=405.300 MHz Clb=5.7m/s t=-74.2C p=103.5hPa h=26.6% batt=2.8V https://tracker.sondehub.org/S3920364 - https://rad
PY1TCM-1S39203642021-09-15 12:14:30-22.78-43.10831025016210Clb=5.0m/s t=-273.0C h=-1.0% p=-1.0hPa v=2.8V 405.300 MHz Type=RS41 ser=S3920364 Radiosonde http://sondehub.org/S3920364 http://
PU1SDR-11S39203642021-09-15 12:14:00-22.7789-43.11121134816064Type=RS41-SGP f=405.300 MHz Clb=2.3m/s t=-74.5C p=110.0hPa h=29.3% batt=2.8V https://tracker.sondehub.org/S3920364 - https://rad
PU1SDR-11S39203642021-09-15 12:13:30-22.7773-43.1135992015851Type=RS41-SGP f=405.300 MHz Clb=11.7m/s t=-74.5C p=114.1hPa h=31.9% batt=2.8V https://tracker.sondehub.org/S3920364 - https://ra
PU1SDR-11S39203642021-09-15 12:12:00-22.7773-43.1211463115203Type=RS41-SGP f=405.300 MHz Clb=7.4m/s t=-72.1C p=127.4hPa h=35.9% batt=2.8V https://tracker.sondehub.org/S3920364 - https://rad
PU1SDR-11S39203642021-09-15 12:11:00-22.7821-43.1292497814754Type=RS41-SGP f=405.300 MHz Clb=7.5m/s t=-72.7C p=137.4hPa h=44.5% batt=2.8V https://tracker.sondehub.org/S3920364 - https://rad
PU1SDR-11S39203642021-09-15 12:10:00-22.7883-43.1406588114377Type=RS41-SGP f=405.300 MHz Clb=5.6m/s t=-70.3C p=146.6hPa h=46.3% batt=2.7V https://tracker.sondehub.org/S3920364 - https://rad
PU1SDR-11S39203642021-09-15 12:08:00-22.796-43.1567783713573Type=RS41-SGP f=405.300 MHz Clb=7.0m/s t=-65.4C p=167.3hPa h=56.2% batt=2.8V https://tracker.sondehub.org/S3920364 - https://rad
PU1SDR-11S39203642021-09-15 12:07:30-22.7961-43.1595883113371Type=RS41-SGP f=405.300 MHz Clb=8.9m/s t=-63.9C p=172.9hPa h=54.9% batt=2.8V https://tracker.sondehub.org/S3920364 - https://rad
PU1SDR-11S39203642021-09-15 12:07:00-22.7965-43.1622874113172Type=RS41-SGP f=405.300 MHz Clb=11.3m/s t=-62.1C p=178.6hPa h=49.2% batt=2.7V https://tracker.sondehub.org/S3920364 - https://ra
PU1SDR-11S39203642021-09-15 12:06:30-22.7967-43.1652853512959Type=RS41-SGP f=405.300 MHz Clb=8.1m/s t=-60.1C p=184.9hPa h=47.8% batt=2.9V https://tracker.sondehub.org/S3920364 - https://rad
PU1SDR-11S39203642021-09-15 12:06:00-22.7973-43.1679563712731Type=RS41-SGP f=405.300 MHz Clb=5.3m/s t=-58.1C p=191.6hPa h=41.2% batt=2.7V https://tracker.sondehub.org/S3920364 - https://rad
PU1SDR-11S39203642021-09-15 12:04:00-22.7947-43.1755992211872Type=RS41-SGP f=405.300 MHz Clb=6.0m/s t=-51.4C p=219.2hPa h=60.9% batt=2.9V https://tracker.sondehub.org/S3920364 - https://rad
PU1SDR-11S39203642021-09-15 12:03:30-22.7945-43.177981511660Type=RS41-SGP f=405.300 MHz Clb=9.5m/s t=-49.4C p=226.4hPa h=61.2% batt=2.9V https://tracker.sondehub.org/S3920364 - https://rad
PU1SDR-11S39203642021-09-15 12:03:00-22.7948-43.178332611409Type=RS41-SGP f=405.300 MHz Clb=11.1m/s t=-47.1C p=235.0hPa h=63.8% batt=2.9V https://tracker.sondehub.org/S3920364 - https://ra
PU1SDR-11S39203642021-09-15 12:02:30-22.796-43.1796433111169Type=RS41-SGP f=405.300 MHz Clb=7.4m/s t=-45.0C p=243.8hPa h=74.4% batt=2.9V https://tracker.sondehub.org/S3920364 - https://rad
PU1SDR-11S39203642021-09-15 12:02:00-22.7969-43.181901910916Type=RS41-SGP f=405.300 MHz Clb=6.3m/s t=-42.7C p=253.0hPa h=71.7% batt=2.9V https://tracker.sondehub.org/S3920364 - https://rad
PU1SDR-11S39203642021-09-15 12:00:00-22.8004-43.184335149961Type=RS41-SGP f=405.300 MHz Clb=5.9m/s t=-34.4C p=290.6hPa h=51.8% batt=2.9V https://tracker.sondehub.org/S3920364 - https://rad
PU1SDR-11S39203642021-09-15 11:59:30-22.8008-43.1852112159768Type=RS41-SGP f=405.300 MHz Clb=7.4m/s t=-32.4C p=299.0hPa h=36.0% batt=2.9V https://tracker.sondehub.org/S3920364 - https://rad
PU1SDR-11S39203642021-09-15 11:59:00-22.8015-43.18542399535Type=RS41-SGP f=405.300 MHz Clb=8.7m/s t=-30.4C p=308.8hPa h=36.3% batt=2.9V https://tracker.sondehub.org/S3920364 - https://rad
PU1SDR-11S39203642021-09-15 11:58:30-22.8024-43.18647249351Type=RS41-SGP f=405.300 MHz Clb=6.1m/s t=-28.8C p=316.8hPa h=33.8% batt=2.9V https://tracker.sondehub.org/S3920364 - https://rad
PU1SDR-11S39203642021-09-15 11:58:00-22.8037-43.187540159140Type=RS41-SGP f=405.300 MHz Clb=6.6m/s t=-27.1C p=326.2hPa h=51.8% batt=2.9V https://tracker.sondehub.org/S3920364 - https://rad
PU1SDR-11S39203642021-09-15 11:57:30-22.8047-43.188760358915Type=RS41-SGP f=405.300 MHz Clb=7.4m/s t=-25.2C p=336.4hPa h=49.9% batt=2.9V https://tracker.sondehub.org/S3920364 - https://rad
PU1SDR-11S39203642021-09-15 11:56:00-22.8076-43.19348338382Type=RS41-SGP f=405.300 MHz Clb=9.9m/s t=-20.9C p=361.8hPa h=31.2% batt=2.9V https://tracker.sondehub.org/S3920364 - https://rad
PU1SDR-11S39203642021-09-15 11:55:00-22.812-43.196841357946Type=RS41-SGP f=405.300 MHz Clb=4.9m/s t=-17.5C p=383.4hPa h=17.7% batt=2.9V https://tracker.sondehub.org/S3920364 - https://rad
PU1SDR-11S39203642021-09-15 11:54:30-22.8141-43.198940357740Type=RS41-SGP f=405.300 MHz Clb=7.4m/s t=-15.7C p=394.0hPa h=21.9% batt=2.9V https://tracker.sondehub.org/S3920364 - https://rad
PU1SDR-11S39203642021-09-15 11:54:00-22.8163-43.201532337555Type=RS41-SGP f=405.300 MHz Clb=7.1m/s t=-15.3C p=403.8hPa h=58.3% batt=2.9V https://tracker.sondehub.org/S3920364 - https://rad
PU1SDR-11S39203642021-09-15 11:53:30-22.8172-43.20347137326Type=RS41-SGP f=405.300 MHz Clb=6.3m/s t=-13.5C p=416.1hPa h=57.2% batt=2.9V https://tracker.sondehub.org/S3920364 - https://rad
PU1SDR-11S39203642021-09-15 11:52:00-22.8173-43.2089111416715Type=RS41-SGP f=405.300 MHz Clb=8.5m/s t=-10.3C p=450.6hPa h=63.0% batt=2.9V https://tracker.sondehub.org/S3920364 - https://rad
PU1SDR-11S39203642021-09-15 11:51:30-22.8164-43.2113154246507Type=RS41-SGP f=405.300 MHz Clb=6.8m/s t=-9.7C p=462.8hPa h=74.9% batt=2.9V https://tracker.sondehub.org/S3920364 - https://radi
PU1SDR-11S39203642021-09-15 11:51:00-22.8153-43.2142114286297Type=RS41-SGP f=405.300 MHz Clb=7.2m/s t=-8.6C p=475.6hPa h=74.7% batt=2.9V https://tracker.sondehub.org/S3920364 - https://radi
PU1SDR-11S39203642021-09-15 11:50:00-22.8146-43.21829565903Type=RS41-SGP f=405.300 MHz Clb=9.4m/s t=-6.8C p=500.1hPa h=75.6% batt=2.9V https://tracker.sondehub.org/S3920364 - https://radi
PU1SDR-11S39203642021-09-15 11:49:30-22.8144-43.2203117245670Type=RS41-SGP f=405.300 MHz Clb=6.6m/s t=-6.5C p=515.3hPa h=91.0% batt=2.9V https://tracker.sondehub.org/S3920364 - https://radi
PU1SDR-11S39203642021-09-15 11:48:00-22.8163-43.226677304971Type=RS41-SGP f=405.300 MHz Clb=7.0m/s t=-4.0C p=-1.0hPa h=-1.0% batt=2.9V https://tracker.sondehub.org/S3920364 - https://radio
PU1SDR-11S39203642021-09-15 11:47:30-22.8169-43.228774224735Type=RS41-SGP f=405.300 MHz Clb=10.5m/s t=-2.5C p=-1.0hPa h=-1.0% batt=2.9V https://tracker.sondehub.org/S3920364 - https://radi
PU1SDR-11S39203642021-09-15 11:47:00-22.8165-43.2303119224502Type=RS41-SGP f=405.300 MHz Clb=9.0m/s t=-1.5C p=-1.0hPa h=-1.0% batt=2.9V https://tracker.sondehub.org/S3920364 - https://radio
PU1SDR-11S39203642021-09-15 11:46:30-22.8159-43.2316107154271Type=RS41 f=405.300 MHz Clb=9.1m/s t=-273.0C p=-1.0hPa h=-1.0% batt=2.9V https://tracker.sondehub.org/S3920364 - https://radioso